createdAt,value
2023-03-07T00:02:01.244Z,54.30
2023-03-07T00:04:54.260Z,55.63
2023-03-07T00:07:36.568Z,58.33
2023-03-07T00:10:32.242Z,60.53
2023-03-07T00:13:20.501Z,55.80
2023-03-07T00:16:02.589Z,46.00
2023-03-07T00:18:51.269Z,64.45
2023-03-07T00:21:33.640Z,52.95
2023-03-07T00:24:22.252Z,58.38
2023-03-07T00:27:04.640Z,56.67
2023-03-07T00:29:53.217Z,51.78
2023-03-07T00:32:35.635Z,51.47
2023-03-07T00:35:24.240Z,47.90
2023-03-07T00:38:13.272Z,50.60
2023-03-07T00:41:07.449Z,50.05
2023-03-07T00:43:57.608Z,47.22
2023-03-07T00:46:46.775Z,50.80
2023-03-07T00:49:29.275Z,42.67
2023-03-07T00:52:18.277Z,48.83
2023-03-07T00:55:00.515Z,46.83
2023-03-07T00:57:49.221Z,42.88
2023-03-07T01:00:31.600Z,42.75
2023-03-07T01:03:20.262Z,57.00
2023-03-07T01:06:03.596Z,49.78
2023-03-07T01:08:59.242Z,44.00
2023-03-07T01:11:48.570Z,47.15
2023-03-07T01:14:31.238Z,51.13
2023-03-07T01:17:19.527Z,55.08
2023-03-07T01:20:02.242Z,54.97
2023-03-07T01:22:51.534Z,51.40
2023-03-07T01:25:34.693Z,49.83
2023-03-07T01:28:24.226Z,46.55
2023-03-07T01:31:07.855Z,44.33
2023-03-07T01:33:59.265Z,49.75
2023-03-07T01:36:51.183Z,51.25
2023-03-07T01:39:40.270Z,50.75
2023-03-07T01:42:25.596Z,46.47
2023-03-07T01:45:22.251Z,49.95
2023-03-07T01:48:04.626Z,40.90
2023-03-07T01:50:53.261Z,47.83
2023-03-07T01:53:35.540Z,42.10
2023-03-07T01:56:27.298Z,52.13
2023-03-07T01:59:10.579Z,41.88
2023-03-07T02:02:14.235Z,50.17
2023-03-07T02:05:20.529Z,50.38
2023-03-07T02:08:12.268Z,57.60
2023-03-07T02:11:08.147Z,51.10
2023-03-07T02:13:57.289Z,55.97
2023-03-07T02:16:39.688Z,67.03
2023-03-07T02:19:43.207Z,57.70
2023-03-07T02:25:25.282Z,62.42
2023-03-07T02:28:09.506Z,67.35
2023-03-07T02:33:55.143Z,70.65
2023-03-07T02:36:45.282Z,65.85
2023-03-07T02:39:38.210Z,78.05
2023-03-07T02:42:36.454Z,70.57
2023-03-07T02:45:25.245Z,72.63
2023-03-07T02:48:14.526Z,77.75
2023-03-07T02:50:57.221Z,82.05
2023-03-07T02:53:54.266Z,65.95
2023-03-07T02:56:43.590Z,77.45
2023-03-07T02:59:26.260Z,65.80
2023-03-07T03:02:09.807Z,66.78
2023-03-07T03:04:58.265Z,63.07
2023-03-07T03:07:47.260Z,51.67
2023-03-07T03:10:35.530Z,65.93
2023-03-07T03:13:18.234Z,58.40
2023-03-07T03:16:07.268Z,56.08
2023-03-07T03:18:49.592Z,57.58
2023-03-07T03:21:38.306Z,54.08
2023-03-07T03:24:21.554Z,43.45
2023-03-07T03:29:55.631Z,55.72
2023-03-07T03:32:47.251Z,49.95
2023-03-07T03:35:29.653Z,51.53
2023-03-07T03:38:18.253Z,52.38
2023-03-07T03:41:00.519Z,49.38
2023-03-07T03:43:52.286Z,47.15
2023-03-07T03:46:35.589Z,30.95
2023-03-07T03:49:27.263Z,34.38
2023-03-07T03:52:10.526Z,27.27
2023-03-07T03:55:00.494Z,33.25
2023-03-07T03:57:43.713Z,35.10
2023-03-07T04:00:32.239Z,37.93
2023-03-07T04:03:14.540Z,38.13
2023-03-07T04:06:08.235Z,32.92
2023-03-07T04:08:50.522Z,38.40
2023-03-07T04:11:40.201Z,30.45
2023-03-07T04:14:29.316Z,31.85
2023-03-07T04:17:11.512Z,33.45
2023-03-07T04:20:00.289Z,31.48
2023-03-07T04:22:50.270Z,34.35
2023-03-07T04:25:32.556Z,34.00
2023-03-07T04:28:21.235Z,30.13
2023-03-07T04:31:03.521Z,38.05
2023-03-07T04:33:52.516Z,26.05
2023-03-07T04:36:35.523Z,26.67
2023-03-07T04:39:24.196Z,29.52
2023-03-07T04:42:07.540Z,34.95
2023-03-07T04:44:56.291Z,29.35
2023-03-07T04:47:38.529Z,28.92
2023-03-07T04:50:28.255Z,32.35
2023-03-07T04:53:10.521Z,30.98
2023-03-07T04:55:59.257Z,27.63
2023-03-07T04:58:42.511Z,42.28
2023-03-07T05:01:33.289Z,38.55
2023-03-07T05:04:15.512Z,33.03
2023-03-07T05:07:04.192Z,37.08
2023-03-07T05:09:46.517Z,29.13
2023-03-07T05:12:36.263Z,34.75
2023-03-07T05:15:20.663Z,37.80
2023-03-07T05:18:09.210Z,37.07
2023-03-07T05:20:52.695Z,39.80
2023-03-07T05:23:42.236Z,28.90
2023-03-07T05:26:24.622Z,33.33
2023-03-07T05:29:13.223Z,32.83
2023-03-07T05:31:55.956Z,36.63
2023-03-07T05:34:46.238Z,39.80
2023-03-07T05:37:30.491Z,45.55
2023-03-07T05:40:21.253Z,26.23
2023-03-07T05:43:03.643Z,34.10
2023-03-07T05:45:52.274Z,30.17
2023-03-07T05:48:34.496Z,28.85
2023-03-07T05:51:23.221Z,29.58
2023-03-07T05:54:05.520Z,33.13
2023-03-07T05:56:54.211Z,28.58
2023-03-07T05:59:37.538Z,29.08
2023-03-07T06:02:26.258Z,27.27
2023-03-07T06:05:08.538Z,32.65
2023-03-07T06:07:58.246Z,36.53
2023-03-07T06:10:53.050Z,38.08
2023-03-07T06:13:43.247Z,31.73
2023-03-07T06:16:25.525Z,27.40
2023-03-07T06:19:17.225Z,33.05
2023-03-07T06:22:00.530Z,23.23
2023-03-07T06:24:50.236Z,28.02
2023-03-07T06:27:32.490Z,26.25
2023-03-07T06:30:21.183Z,29.27
2023-03-07T06:33:10.204Z,29.33
2023-03-07T06:35:58.698Z,19.50
2023-03-07T06:38:41.282Z,23.33
2023-03-07T06:41:29.488Z,26.70
2023-03-07T06:44:13.242Z,22.85
2023-03-07T06:47:02.451Z,23.58
2023-03-07T06:49:45.173Z,26.52
2023-03-07T06:52:34.198Z,23.35
2023-03-07T06:55:17.558Z,25.65
2023-03-07T06:58:06.198Z,25.87
2023-03-07T07:00:48.464Z,31.05
2023-03-07T07:03:37.276Z,20.15
2023-03-07T07:06:19.464Z,25.65
2023-03-07T07:09:08.203Z,18.73
2023-03-07T07:11:56.475Z,23.83
2023-03-07T07:14:39.214Z,19.50
2023-03-07T07:17:28.431Z,28.88
2023-03-07T07:20:12.337Z,22.35
2023-03-07T07:23:02.321Z,20.20
2023-03-07T07:25:47.514Z,18.55
2023-03-07T07:28:36.234Z,20.70
2023-03-07T07:31:18.504Z,28.92
2023-03-07T07:34:08.235Z,21.35
2023-03-07T07:36:50.608Z,28.65
2023-03-07T07:39:39.192Z,25.10
2023-03-07T07:42:21.487Z,33.47
2023-03-07T07:45:36.251Z,29.65
2023-03-07T07:48:22.494Z,28.65
2023-03-07T07:51:12.262Z,29.45
2023-03-07T07:53:54.528Z,29.73
2023-03-07T07:56:43.251Z,24.67
2023-03-07T07:59:33.269Z,23.63
2023-03-07T08:02:22.565Z,36.97
2023-03-07T08:05:05.197Z,25.90
2023-03-07T08:08:00.228Z,20.88
2023-03-07T08:10:48.521Z,24.65
2023-03-07T08:13:31.201Z,21.30
2023-03-07T08:16:18.573Z,22.10
2023-03-07T08:19:09.270Z,24.75
2023-03-07T08:21:57.601Z,25.13
2023-03-07T08:24:43.637Z,25.10
2023-03-07T08:27:31.506Z,31.50
2023-03-07T08:30:14.264Z,31.80
2023-03-07T08:32:57.629Z,26.67
2023-03-07T08:35:48.277Z,18.60
2023-03-07T08:38:37.265Z,21.40
2023-03-07T08:41:19.550Z,26.50
2023-03-07T08:44:08.216Z,27.52
2023-03-07T08:46:50.505Z,31.20
2023-03-07T08:49:39.213Z,22.95
2023-03-07T08:52:28.225Z,22.25
2023-03-07T08:55:11.285Z,21.02
2023-03-07T08:58:00.239Z,19.67
2023-03-07T09:00:42.789Z,20.17
2023-03-07T09:03:31.178Z,26.45
2023-03-07T09:06:21.788Z,21.13
2023-03-07T09:09:10.198Z,16.63
2023-03-07T09:11:58.484Z,21.58
2023-03-07T09:14:40.225Z,23.35
2023-03-07T09:17:29.506Z,17.88
2023-03-07T09:20:12.206Z,20.42
2023-03-07T09:22:55.238Z,19.08
2023-03-07T09:25:44.225Z,20.00
2023-03-07T09:28:32.492Z,15.35
2023-03-07T09:31:21.494Z,15.77
2023-03-07T09:34:09.508Z,19.35
2023-03-07T09:36:51.333Z,16.02
2023-03-07T09:39:33.768Z,16.70
2023-03-07T09:42:52.200Z,16.52
2023-03-07T09:46:10.866Z,15.70
2023-03-07T09:49:29.256Z,14.48
2023-03-07T09:52:19.372Z,16.25
2023-03-07T09:55:11.265Z,15.82
2023-03-07T09:58:04.911Z,14.50
2023-03-07T10:00:51.209Z,16.10
2023-03-07T10:04:01.899Z,20.60
2023-03-07T10:06:50.210Z,18.42
2023-03-07T10:09:32.687Z,15.43
2023-03-07T10:12:40.243Z,16.70
2023-03-07T10:16:02.235Z,18.50
2023-03-07T10:18:49.994Z,19.80
2023-03-07T10:21:39.415Z,19.27
2023-03-07T10:24:44.701Z,18.08
2023-03-07T10:27:37.192Z,15.80
2023-03-07T10:30:26.710Z,16.13
2023-03-07T10:33:09.645Z,13.10
2023-03-07T10:36:14.797Z,14.75
2023-03-07T10:39:07.569Z,22.80
2023-03-07T10:41:56.720Z,19.13
2023-03-07T10:44:42.330Z,17.15
2023-03-07T10:47:33.239Z,23.38
2023-03-07T10:50:30.469Z,14.30
2023-03-07T10:53:37.224Z,18.90
2023-03-07T10:56:27.527Z,16.25
2023-03-07T10:59:18.220Z,23.92
2023-03-07T11:02:06.988Z,15.82
2023-03-07T11:04:56.412Z,14.27
2023-03-07T11:07:41.561Z,11.90
2023-03-07T11:10:48.233Z,11.60
2023-03-07T11:13:32.401Z,15.35
2023-03-07T11:16:28.255Z,19.05
2023-03-07T11:19:10.469Z,18.23
2023-03-07T11:22:04.231Z,8.90
2023-03-07T11:24:47.461Z,13.20
2023-03-07T11:27:59.238Z,16.52
2023-03-07T11:30:59.494Z,20.60
2023-03-07T11:34:04.257Z,13.85
2023-03-07T11:36:50.013Z,21.92
2023-03-07T11:39:48.161Z,16.90
2023-03-07T11:42:36.585Z,18.08
2023-03-07T11:45:34.230Z,18.35
2023-03-07T11:48:29.000Z,15.88
2023-03-07T11:51:57.231Z,20.90
2023-03-07T11:55:06.950Z,19.73
2023-03-07T11:58:11.239Z,18.25
2023-03-07T12:01:12.154Z,16.08
2023-03-07T12:04:11.259Z,15.43
2023-03-07T12:07:17.271Z,16.92
2023-03-07T12:10:37.241Z,12.13
2023-03-07T12:13:40.558Z,14.82
2023-03-07T12:16:36.305Z,15.73
2023-03-07T12:19:27.554Z,13.88
2023-03-07T12:22:34.252Z,17.02
2023-03-07T12:25:46.234Z,19.80
2023-03-07T12:28:43.555Z,19.85
2023-03-07T12:31:42.376Z,17.02
2023-03-07T12:34:28.509Z,16.63
2023-03-07T12:37:31.286Z,23.83
2023-03-07T12:40:18.572Z,19.67
2023-03-07T12:43:41.255Z,16.75
2023-03-07T12:46:52.544Z,22.75
2023-03-07T12:49:59.354Z,25.85
2023-03-07T12:52:59.571Z,20.90
2023-03-07T12:55:55.308Z,17.92
2023-03-07T12:59:11.132Z,24.30
2023-03-07T13:02:11.258Z,16.73
2023-03-07T13:04:53.492Z,18.52
2023-03-07T13:07:43.198Z,17.75
2023-03-07T13:10:40.044Z,17.25
2023-03-07T13:13:59.167Z,18.65
2023-03-07T13:16:55.716Z,22.58
2023-03-07T13:19:44.169Z,24.25
2023-03-07T13:22:26.536Z,23.95
2023-03-07T13:25:33.541Z,19.42
2023-03-07T13:28:39.540Z,26.55
2023-03-07T13:31:28.287Z,17.55
2023-03-07T13:34:52.358Z,24.90
2023-03-07T13:38:09.277Z,22.00
2023-03-07T13:40:54.806Z,19.02
2023-03-07T13:43:55.373Z,23.33
2023-03-07T13:47:02.242Z,28.95
2023-03-07T13:49:46.089Z,30.80
2023-03-07T13:52:47.152Z,28.20
2023-03-07T13:55:39.548Z,27.38
2023-03-07T13:58:41.209Z,29.48
2023-03-07T14:01:34.441Z,30.17
2023-03-07T14:04:40.802Z,34.40
2023-03-07T14:07:35.211Z,35.75
2023-03-07T14:10:30.309Z,34.88
2023-03-07T14:13:12.592Z,44.13
2023-03-07T14:16:21.269Z,34.60
2023-03-07T14:19:35.492Z,43.33
2023-03-07T14:23:02.236Z,36.85
2023-03-07T14:26:03.241Z,36.15
2023-03-07T14:29:05.566Z,35.05
2023-03-07T14:31:50.225Z,31.95
2023-03-07T14:34:43.511Z,42.55
2023-03-07T14:37:30.215Z,39.17
2023-03-07T14:40:38.493Z,34.92
2023-03-07T14:43:32.225Z,32.88
2023-03-07T14:46:39.519Z,40.13
2023-03-07T14:49:45.166Z,36.60
2023-03-07T14:52:34.555Z,34.40
2023-03-07T14:55:26.226Z,50.08
2023-03-07T14:58:15.482Z,42.83
2023-03-07T15:01:08.211Z,47.95
2023-03-07T15:03:55.324Z,50.40
2023-03-07T15:06:45.246Z,36.45
2023-03-07T15:09:34.699Z,40.00
2023-03-07T15:12:34.200Z,42.50
2023-03-07T15:15:31.471Z,36.00
2023-03-07T15:18:43.275Z,40.47
2023-03-07T15:21:29.530Z,36.50
2023-03-07T15:24:36.230Z,46.85
2023-03-07T15:27:22.670Z,39.67
2023-03-07T15:30:12.225Z,37.67
2023-03-07T15:33:01.255Z,41.08
2023-03-07T15:35:51.447Z,42.28
2023-03-07T15:38:34.230Z,43.40
2023-03-07T15:41:44.513Z,39.05
2023-03-07T15:44:29.246Z,37.90
2023-03-07T15:47:24.571Z,54.97
2023-03-07T15:50:14.479Z,41.70
2023-03-07T15:53:08.537Z,42.53
2023-03-07T15:55:53.210Z,51.20
2023-03-07T15:58:51.551Z,42.20
2023-03-07T16:01:35.239Z,43.63
2023-03-07T16:04:44.511Z,41.47
2023-03-07T16:07:27.258Z,41.40
2023-03-07T16:10:16.480Z,43.08
2023-03-07T16:13:07.249Z,45.63
2023-03-07T16:15:49.476Z,54.67
2023-03-07T16:18:39.286Z,40.60
2023-03-07T16:21:23.489Z,46.50
2023-03-07T16:24:12.251Z,47.17
2023-03-07T16:26:55.542Z,56.28
2023-03-07T16:29:44.261Z,47.03
2023-03-07T16:32:29.528Z,50.80
2023-03-07T16:35:27.208Z,45.47
2023-03-07T16:38:09.580Z,46.10
2023-03-07T16:40:58.250Z,45.20
2023-03-07T16:43:45.046Z,55.30
2023-03-07T16:46:29.233Z,54.55
2023-03-07T16:49:26.224Z,53.47
2023-03-07T16:52:08.677Z,58.20
2023-03-07T16:54:57.229Z,41.60
2023-03-07T16:57:39.747Z,50.38
2023-03-07T17:00:33.573Z,50.38
2023-03-07T17:03:17.669Z,48.80
2023-03-07T17:06:06.248Z,54.75
2023-03-07T17:08:48.635Z,67.78
2023-03-07T17:11:37.257Z,49.22
2023-03-07T17:14:22.706Z,50.40
2023-03-07T17:17:12.253Z,56.83
2023-03-07T17:19:54.613Z,61.45
2023-03-07T17:22:45.173Z,52.30
2023-03-07T17:25:35.117Z,55.67
2023-03-07T17:28:25.227Z,51.58
2023-03-07T17:31:07.701Z,49.78
2023-03-07T17:33:57.263Z,53.70
2023-03-07T17:36:39.748Z,63.05
2023-03-07T17:39:29.179Z,45.97
2023-03-07T17:42:12.730Z,54.58
2023-03-07T17:45:01.269Z,48.90
2023-03-07T17:47:44.485Z,46.30
2023-03-07T17:50:33.391Z,60.50
2023-03-07T17:53:15.512Z,56.00
2023-03-07T17:56:04.275Z,58.55
2023-03-07T17:58:46.526Z,62.47
2023-03-07T18:01:37.352Z,57.20
2023-03-07T18:04:20.018Z,56.95
2023-03-07T18:07:10.220Z,51.17
2023-03-07T18:10:06.917Z,55.72
2023-03-07T18:13:03.220Z,57.97
2023-03-07T18:16:03.325Z,49.60
2023-03-07T18:18:59.509Z,66.35
2023-03-07T18:21:42.572Z,53.78
2023-03-07T18:24:34.240Z,55.45
2023-03-07T18:27:16.759Z,50.80
2023-03-07T18:30:05.189Z,50.08
2023-03-07T18:32:47.613Z,50.03
2023-03-07T18:35:36.243Z,53.20
2023-03-07T18:38:18.578Z,53.67
2023-03-07T18:41:21.286Z,53.30
2023-03-07T18:44:05.492Z,55.60
2023-03-07T18:46:55.243Z,60.45
2023-03-07T18:49:37.545Z,69.15
2023-03-07T18:52:26.247Z,63.55
2023-03-07T18:55:08.734Z,70.70
2023-03-07T18:57:57.220Z,55.42
2023-03-07T19:00:39.711Z,63.85
2023-03-07T19:03:28.138Z,66.38
2023-03-07T19:06:10.549Z,60.75
2023-03-07T19:09:00.639Z,57.15
2023-03-07T19:11:48.669Z,54.55
2023-03-07T19:14:30.217Z,56.25
2023-03-07T19:17:19.672Z,59.67
2023-03-07T19:20:07.315Z,53.55
2023-03-07T19:22:55.574Z,53.15
2023-03-07T19:25:39.188Z,54.42
2023-03-07T19:28:27.554Z,55.15
2023-03-07T19:31:22.254Z,68.82
2023-03-07T19:34:11.668Z,49.35
2023-03-07T19:36:54.262Z,55.65
2023-03-07T19:39:42.603Z,59.92
2023-03-07T19:42:25.188Z,63.65
2023-03-07T19:45:14.843Z,51.63
2023-03-07T19:47:58.135Z,58.20
2023-03-07T19:50:50.224Z,58.00
2023-03-07T19:53:32.567Z,50.42
2023-03-07T19:56:27.124Z,57.55
2023-03-07T19:59:12.643Z,52.17
2023-03-07T20:02:01.176Z,51.55
2023-03-07T20:04:43.703Z,50.88
2023-03-07T20:07:32.248Z,50.00
2023-03-07T20:10:15.499Z,65.90
2023-03-07T20:13:04.182Z,65.47
2023-03-07T20:15:46.479Z,61.45
2023-03-07T20:18:35.244Z,50.35
2023-03-07T20:21:22.886Z,51.50
2023-03-07T20:24:13.205Z,52.63
2023-03-07T20:26:55.640Z,49.75
2023-03-07T20:29:44.244Z,53.13
2023-03-07T20:32:27.782Z,50.65
2023-03-07T20:35:17.564Z,55.10
2023-03-07T20:38:00.580Z,52.13
2023-03-07T20:40:49.185Z,63.15
2023-03-07T20:43:31.509Z,65.05
2023-03-07T20:46:22.245Z,49.30
2023-03-07T20:49:05.506Z,57.67
2023-03-07T20:51:55.191Z,51.60
2023-03-07T20:54:37.749Z,65.32
2023-03-07T20:57:26.212Z,55.30
2023-03-07T21:00:09.393Z,58.42
2023-03-07T21:03:05.798Z,55.50
2023-03-07T21:05:48.568Z,54.78
2023-03-07T21:08:39.130Z,56.35
2023-03-07T21:11:36.091Z,60.03
2023-03-07T21:14:27.885Z,54.03
2023-03-07T21:17:17.254Z,57.55
2023-03-07T21:20:06.186Z,71.57
2023-03-07T21:22:48.476Z,70.35
2023-03-07T21:25:38.234Z,55.90
2023-03-07T21:28:27.196Z,53.55
2023-03-07T21:31:20.230Z,59.67
2023-03-07T21:34:07.490Z,61.00
2023-03-07T21:36:56.526Z,82.25
2023-03-07T21:39:38.486Z,63.22
2023-03-07T21:42:27.192Z,74.32
2023-03-07T21:45:11.867Z,72.70
2023-03-07T21:48:02.226Z,71.63
2023-03-07T21:50:44.524Z,72.50
2023-03-07T21:53:33.178Z,77.88
2023-03-07T21:56:18.509Z,68.40
2023-03-07T21:59:07.227Z,75.03
2023-03-07T22:01:49.494Z,72.45
2023-03-07T22:04:38.178Z,75.97
2023-03-07T22:07:21.241Z,76.07
2023-03-07T22:10:10.198Z,70.95
2023-03-07T22:12:58.515Z,76.38
2023-03-07T22:15:40.139Z,79.93
2023-03-07T22:18:22.431Z,86.30
2023-03-07T22:21:12.233Z,88.80
2023-03-07T22:24:05.423Z,96.85
2023-03-07T22:26:48.176Z,100.03
2023-03-07T22:29:30.529Z,108.38
2023-03-07T22:32:20.246Z,109.53
2023-03-07T22:35:09.531Z,101.43
2023-03-07T22:37:52.466Z,109.22
2023-03-07T22:40:34.476Z,123.70
2023-03-07T22:43:23.226Z,127.68
2023-03-07T22:46:13.539Z,114.20
2023-03-07T22:49:03.258Z,122.85
2023-03-07T22:51:45.328Z,122.10
2023-03-07T22:54:34.154Z,122.32
2023-03-07T22:57:22.466Z,134.75
2023-03-07T23:00:05.168Z,133.45
2023-03-07T23:02:47.462Z,133.77
2023-03-07T23:05:36.215Z,139.75
2023-03-07T23:08:24.515Z,128.43
2023-03-07T23:11:14.223Z,127.03
2023-03-07T23:14:05.136Z,135.30
2023-03-07T23:16:48.155Z,135.90
2023-03-07T23:19:31.610Z,146.23
2023-03-07T23:22:20.247Z,144.57
2023-03-07T23:25:08.474Z,156.00
2023-03-07T23:27:51.198Z,152.32
2023-03-07T23:30:36.440Z,148.10
2023-03-07T23:33:25.168Z,147.38
2023-03-07T23:36:14.135Z,138.85
2023-03-07T23:39:03.170Z,148.38
2023-03-07T23:41:45.430Z,137.93
2023-03-07T23:44:34.492Z,140.75
2023-03-07T23:47:24.458Z,144.20
2023-03-07T23:50:06.163Z,141.55
2023-03-07T23:52:55.469Z,142.40
2023-03-07T23:55:38.162Z,140.90
2023-03-07T23:58:20.397Z,138.20
